Time;durP1;ratioP1;P1;durP2;ratioP2;P2;SDS_P1;SDS_P2;PMS_P1;PMS_P2;Temp;Humidity;BMP_temperature;BMP_pressure;BME280_temperature;BME280_humidity;BME280_pressure;Samples;Min_cycle;Max_cycle;Signal;HPM_P1;HPM_P2
2022/12/14 00:03:01;;;;;;;224.10;102.70;;;;;;;-7.97;86.51;98221.00;422098;1287;108551;-40
2022/12/14 00:13:13;;;;;;;247.40;113.30;;;;;;;-8.11;86.29;98210.08;422186;1288;97480;-39
2022/12/14 00:23:20;;;;;;;236.90;101.60;;;;;;;-8.18;86.29;98215.52;422165;1296;109812;-41
2022/12/14 00:33:28;;;;;;;209.20;95.60;;;;;;;-8.40;86.03;98201.88;422183;1297;110189;-39
2022/12/14 00:43:35;;;;;;;217.90;97.80;;;;;;;-8.52;86.18;98197.90;422145;1286;96607;-41
2022/12/14 00:53:43;;;;;;;209.90;96.50;;;;;;;-8.67;86.06;98192.58;422290;1294;109605;-40
2022/12/14 01:04:15;;;;;;;207.30;92.30;;;;;;;-8.83;86.01;98178.96;422240;1289;97539;-38
2022/12/14 01:14:20;;;;;;;199.50;89.30;;;;;;;-9.06;85.96;98166.20;422184;1286;110039;-40
2022/12/14 01:24:27;;;;;;;196.80;91.10;;;;;;;-9.16;86.31;98165.12;422155;1294;107646;-39
2022/12/14 01:34:35;;;;;;;177.10;84.60;;;;;;;-9.27;86.09;98160.17;422294;1286;97906;-39
2022/12/14 01:44:56;;;;;;;201.60;85.40;;;;;;;-9.37;86.14;98157.66;422245;1287;107606;-39
2022/12/14 01:55:07;;;;;;;183.80;86.60;;;;;;;-9.56;86.07;98151.61;422179;1287;97882;-39
2022/12/14 02:05:16;;;;;;;200.30;85.10;;;;;;;-9.57;86.07;98152.23;422241;1296;111101;-39
2022/12/14 02:15:24;;;;;;;183.80;79.30;;;;;;;-9.62;85.99;98146.80;422126;1294;107656;-39
2022/12/14 02:26:05;;;;;;;146.70;64.70;;;;;;;-9.85;85.86;98132.35;423066;1268;97910;-38
2022/12/14 02:36:21;;;;;;;165.20;73.50;;;;;;;-9.80;85.97;98132.59;421655;1287;388630;-39
2022/12/14 02:46:29;;;;;;;151.10;69.90;;;;;;;-9.89;85.69;98133.64;422165;1287;96920;-39
2022/12/14 02:56:39;;;;;;;115.50;48.80;;;;;;;-9.90;85.81;98129.42;422258;1287;108957;-38
2022/12/14 03:06:51;;;;;;;138.80;65.60;;;;;;;-9.78;86.11;98131.60;422222;1287;106689;-40
2022/12/14 03:17:00;;;;;;;138.00;64.00;;;;;;;-9.72;86.10;98126.73;422234;1288;98256;-39
2022/12/14 03:27:04;;;;;;;124.30;61.30;;;;;;;-9.47;86.45;98118.53;422003;1294;107372;-39
2022/12/14 03:37:15;;;;;;;118.20;54.30;;;;;;;-9.35;86.34;98106.83;422296;1283;97864;-40
2022/12/14 03:47:26;;;;;;;113.10;54.80;;;;;;;-9.22;86.64;98098.98;422105;1279;111603;-39
2022/12/14 03:57:36;;;;;;;111.60;54.30;;;;;;;-9.28;85.88;98104.38;422116;1287;106864;-39
2022/12/14 04:07:46;;;;;;;116.70;55.30;;;;;;;-9.38;85.93;98112.39;422207;1294;97793;-40
2022/12/14 04:38:42;;;;;;;99.90;41.60;;;;;;;-9.37;86.09;98084.14;422191;1287;110302;-40
2022/12/14 04:48:55;;;;;;;83.50;37.40;;;;;;;-9.43;85.96;98081.69;422121;1287;107219;-39
2022/12/14 04:59:03;;;;;;;75.50;34.00;;;;;;;-9.52;86.00;98079.30;422177;1283;98014;-41
2022/12/14 05:09:15;;;;;;;63.40;32.00;;;;;;;-9.58;86.21;98064.27;422251;1287;107095;-39
2022/12/14 05:29:29;;;;;;;57.20;30.40;;;;;;;-9.39;86.19;98027.64;422209;1287;109932;-40
2022/12/14 05:39:36;;;;;;;64.20;30.50;;;;;;;-9.38;86.35;98023.91;422073;1296;107242;-38
2022/12/14 05:49:43;;;;;;;51.70;26.80;;;;;;;-9.29;86.26;98023.23;422181;1287;96669;-40
2022/12/14 05:59:55;;;;;;;60.00;31.40;;;;;;;-9.14;86.50;98015.20;422166;1288;109406;-39
2022/12/14 06:10:02;;;;;;;55.70;28.60;;;;;;;-9.05;86.27;98014.70;422171;1294;97833;-40
2022/12/14 06:20:11;;;;;;;64.50;31.90;;;;;;;-9.10;86.12;98008.09;422253;1298;109891;-40
2022/12/14 06:30:18;;;;;;;66.40;31.60;;;;;;;-9.21;86.02;98008.83;422134;1297;107011;-39
2022/12/14 06:40:25;;;;;;;64.50;33.20;;;;;;;-9.34;86.00;98006.59;422162;1287;97882;-40
2022/12/14 06:50:32;;;;;;;74.30;38.10;;;;;;;-9.35;85.95;97994.90;422053;1296;108778;-39
2022/12/14 07:00:39;;;;;;;79.20;39.00;;;;;;;-9.26;86.18;97989.57;422093;1283;97925;-39
2022/12/14 07:10:46;;;;;;;91.30;44.40;;;;;;;-9.13;86.18;97983.41;422288;1297;109843;-39
2022/12/14 07:20:56;;;;;;;87.40;40.90;;;;;;;-8.99;86.07;97981.05;422126;1280;108526;-39
2022/12/14 07:31:04;;;;;;;112.00;50.80;;;;;;;-8.80;86.26;97972.73;423238;1290;97858;-39
2022/12/14 07:41:14;;;;;;;105.00;50.60;;;;;;;-8.62;86.17;97971.77;422247;1294;109063;-40
2022/12/14 07:51:30;;;;;;;172.90;74.00;;;;;;;-8.40;86.22;97968.69;422019;1284;97477;-39
2022/12/14 08:11:45;;;;;;;116.90;58.40;;;;;;;-7.56;86.46;97960.02;422059;1292;107975;-39
2022/12/14 08:21:52;;;;;;;131.40;66.20;;;;;;;-7.20;86.07;97954.48;422178;1294;97666;-40
2022/12/14 08:32:00;;;;;;;148.40;66.30;;;;;;;-6.94;86.14;97948.58;422101;1295;107179;-39
2022/12/14 08:42:07;;;;;;;288.90;126.90;;;;;;;-6.57;86.52;97939.59;422204;1295;98100;-41
2022/12/14 08:52:15;;;;;;;251.00;108.20;;;;;;;-6.01;86.87;97936.45;422163;1295;112054;-40
2022/12/14 09:02:22;;;;;;;237.90;101.40;;;;;;;-5.38;86.95;97939.46;422321;1288;109937;-38
2022/12/14 09:12:29;;;;;;;158.90;76.70;;;;;;;-4.85;86.61;97933.46;422254;1286;107615;-39
2022/12/14 09:22:36;;;;;;;139.00;66.70;;;;;;;-4.42;86.39;97931.59;422266;1294;97723;-39
2022/12/14 09:42:57;;;;;;;133.40;57.90;;;;;;;-3.54;86.61;97899.40;422106;1293;97855;-39
2022/12/14 09:53:11;;;;;;;113.00;50.60;;;;;;;-3.42;86.30;97887.50;422187;1296;110259;-40
2022/12/14 10:03:24;;;;;;;134.00;57.10;;;;;;;-3.88;85.71;97879.34;422199;1286;107545;-38
2022/12/14 10:13:34;;;;;;;132.60;59.00;;;;;;;-4.20;85.97;97873.36;422182;1287;97946;-39
2022/12/14 10:23:41;;;;;;;140.80;61.60;;;;;;;-4.19;85.96;97855.88;422294;1292;110555;-39
2022/12/14 10:33:50;;;;;;;145.90;63.60;;;;;;;-4.11;86.06;97838.77;422058;1294;108395;-40
2022/12/14 10:43:59;;;;;;;146.50;69.00;;;;;;;-3.92;86.32;97822.36;422248;1281;97876;-40
2022/12/14 10:54:08;;;;;;;151.00;69.70;;;;;;;-3.69;86.25;97814.30;422343;1297;110109;-39
2022/12/14 11:04:13;;;;;;;169.70;79.50;;;;;;;-3.15;86.44;97801.86;422319;1296;109696;-39
2022/12/14 11:14:24;;;;;;;163.10;75.10;;;;;;;-2.75;86.17;97784.64;422150;1294;97847;-39
2022/12/14 11:24:34;;;;;;;171.00;78.30;;;;;;;-2.82;86.01;97773.69;422166;1288;111361;-39
2022/12/14 11:34:42;;;;;;;176.70;80.20;;;;;;;-3.04;85.85;97757.95;422327;1296;107921;-40
2022/12/14 11:44:51;;;;;;;161.00;71.00;;;;;;;-3.25;85.68;97738.19;422284;1287;97495;-39
2022/12/14 11:55:14;;;;;;;139.20;61.70;;;;;;;-3.39;85.71;97725.15;422202;1294;106667;-40
2022/12/14 12:05:31;;;;;;;75.20;42.10;;;;;;;-3.24;85.53;97710.10;422113;1298;96684;-40
2022/12/14 12:15:41;;;;;;;117.70;50.70;;;;;;;-2.98;85.68;97693.16;422320;1297;109354;-39
2022/12/14 12:25:58;;;;;;;128.40;56.30;;;;;;;-2.98;85.81;97669.34;422294;1297;106828;-39
2022/12/14 12:36:05;;;;;;;139.80;57.70;;;;;;;-2.98;85.71;97646.80;422338;1294;97892;-39
2022/12/14 12:46:15;;;;;;;110.10;50.30;;;;;;;-3.01;85.79;97629.91;422338;1296;110256;-39
2022/12/14 12:56:26;;;;;;;102.80;47.60;;;;;;;-3.09;85.58;97616.42;422331;1296;108105;-41
2022/12/14 13:06:39;;;;;;;110.10;44.40;;;;;;;-3.43;85.13;97599.67;422247;1287;98312;-39
2022/12/14 13:16:50;;;;;;;107.50;51.90;;;;;;;-3.96;84.80;97599.05;422345;1296;110399;-39
2022/12/14 13:27:08;;;;;;;79.90;37.90;;;;;;;-4.41;84.70;97574.42;422126;1294;108196;-41
2022/12/14 13:37:48;;;;;;;95.50;40.70;;;;;;;-4.68;84.73;97555.41;422180;1294;97876;-40
2022/12/14 13:47:57;;;;;;;104.30;41.40;;;;;;;-4.86;84.84;97528.70;422169;1296;111592;-40
2022/12/14 14:08:34;;;;;;;91.90;41.70;;;;;;;-5.37;84.49;97497.59;422348;1289;97892;-40
2022/12/14 14:18:58;;;;;;;70.80;35.80;;;;;;;-5.62;84.40;97491.16;422198;1286;111721;-39
2022/12/14 14:39:40;;;;;;;67.40;33.50;;;;;;;-5.71;84.49;97462.38;422088;1294;312970;-40
2022/12/14 14:50:20;;;;;;;66.90;30.80;;;;;;;-5.77;84.56;97458.39;422150;1296;107631;-40
2022/12/14 15:00:27;;;;;;;57.80;30.40;;;;;;;-5.80;84.42;97443.30;423320;1288;97755;-39
2022/12/14 15:10:41;;;;;;;58.10;28.40;;;;;;;-5.89;84.37;97441.60;422208;1286;111581;-39
2022/12/14 15:20:50;;;;;;;62.50;31.00;;;;;;;-5.93;84.57;97436.52;422228;1284;107352;-40
2022/12/14 15:30:58;;;;;;;60.00;29.80;;;;;;;-5.97;84.55;97422.14;422340;1296;97530;-39
2022/12/14 15:41:14;;;;;;;56.90;28.50;;;;;;;-5.97;84.77;97413.23;422336;1296;107930;-39
2022/12/14 15:51:23;;;;;;;67.70;34.20;;;;;;;-5.91;84.77;97401.96;422311;1289;97105;-41
2022/12/14 16:01:30;;;;;;;83.90;38.50;;;;;;;-5.83;84.85;97403.04;422245;1302;110052;-40
2022/12/14 16:11:41;;;;;;;80.80;40.60;;;;;;;-5.88;84.96;97410.08;422358;1296;109288;-39
2022/12/14 16:21:49;;;;;;;77.50;38.50;;;;;;;-5.86;85.10;97402.83;422218;1293;97912;-39
2022/12/14 16:31:59;;;;;;;73.60;36.00;;;;;;;-5.86;85.32;97382.27;422141;1294;107896;-39
2022/12/14 16:42:17;;;;;;;76.70;37.50;;;;;;;-5.84;85.45;97360.23;422197;1292;96938;-38
2022/12/14 17:02:29;;;;;;;96.10;44.50;;;;;;;-5.76;85.68;97334.02;422186;1286;107096;-39
2022/12/14 17:12:38;;;;;;;98.50;50.10;;;;;;;-5.70;85.68;97321.02;422273;1289;97885;-40
2022/12/14 17:32:57;;;;;;;89.80;42.80;;;;;;;-5.65;85.91;97319.65;422203;1293;97892;-39
2022/12/14 17:43:04;;;;;;;86.30;42.90;;;;;;;-5.52;86.10;97309.61;422130;1280;110750;-39
2022/12/14 17:53:11;;;;;;;106.60;52.00;;;;;;;-5.45;86.10;97302.27;422187;1292;107622;-40
2022/12/14 18:03:19;;;;;;;95.30;48.10;;;;;;;-5.39;86.35;97292.23;422203;1288;97870;-40
2022/12/14 18:13:29;;;;;;;116.00;54.80;;;;;;;-5.30;86.44;97284.13;422104;1296;107620;-40
2022/12/14 18:23:37;;;;;;;93.90;47.10;;;;;;;-5.18;86.53;97288.41;422140;1287;97468;-40
2022/12/14 18:33:44;;;;;;;124.10;54.50;;;;;;;-5.14;86.60;97282.66;422079;1292;110532;-38
2022/12/14 18:43:53;;;;;;;104.80;48.10;;;;;;;-5.10;86.57;97280.72;422138;1293;108094;-41
2022/12/14 18:54:02;;;;;;;89.00;45.30;;;;;;;-5.16;86.51;97264.15;422199;1287;97510;-40
2022/12/14 19:04:09;;;;;;;85.90;44.70;;;;;;;-5.18;86.65;97251.01;422081;1287;107565;-39
2022/12/14 19:14:17;;;;;;;83.80;41.50;;;;;;;-5.28;86.50;97244.95;422212;1282;97521;-40
2022/12/14 19:24:24;;;;;;;77.50;39.60;;;;;;;-5.26;86.71;97229.02;422024;1296;111490;-41
2022/12/14 19:34:31;;;;;;;84.40;42.10;;;;;;;-5.20;86.85;97203.79;422262;1296;107705;-40
2022/12/14 19:44:37;;;;;;;81.00;41.70;;;;;;;-5.17;86.90;97199.02;422218;1294;98421;-42
2022/12/14 19:54:44;;;;;;;99.30;47.00;;;;;;;-5.09;87.07;97197.45;422141;1298;107379;-40
2022/12/14 20:04:51;;;;;;;91.50;46.70;;;;;;;-5.00;87.20;97180.58;421958;1287;97483;-41
2022/12/14 20:14:58;;;;;;;153.90;65.70;;;;;;;-4.84;87.31;97192.77;422104;1288;110796;-39
2022/12/14 20:25:07;;;;;;;117.90;55.70;;;;;;;-4.74;87.34;97189.39;422115;1281;108328;-40
2022/12/14 20:45:20;;;;;;;140.80;59.90;;;;;;;-4.68;87.31;97168.81;423897;1294;107690;-40
2022/12/14 20:55:28;;;;;;;106.30;51.90;;;;;;;-4.70;87.30;97165.25;422700;1294;97681;-39
2022/12/14 21:05:38;;;;;;;110.50;55.30;;;;;;;-4.66;87.48;97170.35;422136;1294;111577;-39
2022/12/14 21:15:46;;;;;;;117.70;58.40;;;;;;;-4.59;87.51;97169.56;422087;1293;107453;-39
2022/12/14 21:25:53;;;;;;;116.20;55.30;;;;;;;-4.62;87.47;97163.52;422105;1291;97491;-38
2022/12/14 21:35:59;;;;;;;114.10;55.30;;;;;;;-4.61;87.63;97156.27;422191;1296;108763;-40
2022/12/14 21:46:04;;;;;;;108.30;55.30;;;;;;;-4.58;87.71;97156.80;422114;1281;97803;-40
2022/12/14 22:06:37;;;;;;;153.00;66.40;;;;;;;-4.41;88.20;97160.94;422213;1284;108565;-41
2022/12/14 22:16:44;;;;;;;153.90;65.50;;;;;;;-4.51;88.22;97148.69;422272;1296;97880;-40
2022/12/14 22:26:51;;;;;;;147.30;63.50;;;;;;;-4.65;88.26;97150.58;422127;1296;110453;-39
2022/12/14 22:36:58;;;;;;;238.30;79.30;;;;;;;-4.71;88.33;97155.64;422147;1286;108505;-39
2022/12/14 22:47:05;;;;;;;172.10;67.40;;;;;;;-4.78;88.28;97158.05;422203;1296;97248;-40
2022/12/14 22:57:17;;;;;;;175.20;73.80;;;;;;;-4.82;88.46;97160.50;422126;1297;109777;-38
2022/12/14 23:07:24;;;;;;;199.10;80.90;;;;;;;-4.90;88.57;97161.16;422297;1287;107388;-41
